sensor_id;sensor_type;location;lat;lon;timestamp;temperature;humidity
20891;DHT22;10605;52.968;8.844;2023-02-18T00:01:41;6.10;99.90
20891;DHT22;10605;52.968;8.844;2023-02-18T00:04:16;6.10;99.90
20891;DHT22;10605;52.968;8.844;2023-02-18T00:06:41;6.10;99.90
20891;DHT22;10605;52.968;8.844;2023-02-18T00:09:07;6.20;99.90
20891;DHT22;10605;52.968;8.844;2023-02-18T00:11:35;6.20;99.90
20891;DHT22;10605;52.968;8.844;2023-02-18T00:14:03;6.20;99.90
20891;DHT22;10605;52.968;8.844;2023-02-18T00:16:30;6.30;99.90
20891;DHT22;10605;52.968;8.844;2023-02-18T00:19:00;6.40;99.90
20891;DHT22;10605;52.968;8.844;2023-02-18T00:21:29;6.40;99.90
20891;DHT22;10605;52.968;8.844;2023-02-18T00:23:57;6.40;99.90
20891;DHT22;10605;52.968;8.844;2023-02-18T00:26:23;6.40;99.90
20891;DHT22;10605;52.968;8.844;2023-02-18T00:28:51;6.40;99.90
20891;DHT22;10605;52.968;8.844;2023-02-18T00:31:20;6.50;99.90
20891;DHT22;10605;52.968;8.844;2023-02-18T00:33:46;6.50;99.90
20891;DHT22;10605;52.968;8.844;2023-02-18T00:36:14;6.60;99.90
20891;DHT22;10605;52.968;8.844;2023-02-18T00:38:45;6.60;99.90
20891;DHT22;10605;52.968;8.844;2023-02-18T00:41:15;6.60;99.90
20891;DHT22;10605;52.968;8.844;2023-02-18T00:43:43;6.70;99.90
20891;DHT22;10605;52.968;8.844;2023-02-18T00:46:13;6.70;99.90
20891;DHT22;10605;52.968;8.844;2023-02-18T00:48:39;6.70;99.90
20891;DHT22;10605;52.968;8.844;2023-02-18T00:51:06;6.70;99.90
20891;DHT22;10605;52.968;8.844;2023-02-18T00:53:32;6.80;99.90
20891;DHT22;10605;52.968;8.844;2023-02-18T00:56:02;6.70;99.90
20891;DHT22;10605;52.968;8.844;2023-02-18T00:58:30;6.80;99.90
20891;DHT22;10605;52.968;8.844;2023-02-18T01:00:59;6.80;99.90
20891;DHT22;10605;52.968;8.844;2023-02-18T01:03:25;6.90;99.90
20891;DHT22;10605;52.968;8.844;2023-02-18T01:05:54;6.90;99.90
20891;DHT22;10605;52.968;8.844;2023-02-18T01:08:20;6.80;99.90
20891;DHT22;10605;52.968;8.844;2023-02-18T01:10:48;6.90;99.90
20891;DHT22;10605;52.968;8.844;2023-02-18T01:13:15;6.90;99.90
20891;DHT22;10605;52.968;8.844;2023-02-18T01:15:41;7.00;99.90
20891;DHT22;10605;52.968;8.844;2023-02-18T01:18:11;7.00;99.90
20891;DHT22;10605;52.968;8.844;2023-02-18T01:20:42;7.00;99.90
20891;DHT22;10605;52.968;8.844;2023-02-18T01:23:08;7.00;99.90
20891;DHT22;10605;52.968;8.844;2023-02-18T01:25:34;7.00;99.90
20891;DHT22;10605;52.968;8.844;2023-02-18T01:28:01;7.00;99.90
20891;DHT22;10605;52.968;8.844;2023-02-18T01:30:28;7.00;99.90
20891;DHT22;10605;52.968;8.844;2023-02-18T01:32:55;7.00;99.90
20891;DHT22;10605;52.968;8.844;2023-02-18T01:35:22;7.00;99.90
20891;DHT22;10605;52.968;8.844;2023-02-18T01:37:51;7.00;99.90
20891;DHT22;10605;52.968;8.844;2023-02-18T01:40:21;7.00;99.90
20891;DHT22;10605;52.968;8.844;2023-02-18T01:42:48;7.00;99.90
20891;DHT22;10605;52.968;8.844;2023-02-18T01:48:04;7.00;99.90
20891;DHT22;10605;52.968;8.844;2023-02-18T01:50:33;7.10;99.90
20891;DHT22;10605;52.968;8.844;2023-02-18T01:53:02;7.10;99.90
20891;DHT22;10605;52.968;8.844;2023-02-18T01:55:28;7.10;99.90
20891;DHT22;10605;52.968;8.844;2023-02-18T01:57:54;7.10;99.90
20891;DHT22;10605;52.968;8.844;2023-02-18T02:00:25;7.10;99.90
20891;DHT22;10605;52.968;8.844;2023-02-18T02:02:52;7.10;99.90
20891;DHT22;10605;52.968;8.844;2023-02-18T02:05:19;7.10;99.90
20891;DHT22;10605;52.968;8.844;2023-02-18T02:07:47;7.10;99.90
20891;DHT22;10605;52.968;8.844;2023-02-18T02:10:14;7.10;99.90
20891;DHT22;10605;52.968;8.844;2023-02-18T02:31:31;7.30;99.90
20891;DHT22;10605;52.968;8.844;2023-02-18T02:44:56;7.30;99.90
20891;DHT22;10605;52.968;8.844;2023-02-18T02:50:37;7.30;99.90
20891;DHT22;10605;52.968;8.844;2023-02-18T02:53:20;7.30;99.90
20891;DHT22;10605;52.968;8.844;2023-02-18T02:55:47;7.40;99.90
20891;DHT22;10605;52.968;8.844;2023-02-18T02:58:18;7.40;99.90
20891;DHT22;10605;52.968;8.844;2023-02-18T03:01:11;7.40;99.90
20891;DHT22;10605;52.968;8.844;2023-02-18T03:04:02;7.40;99.90
20891;DHT22;10605;52.968;8.844;2023-02-18T03:06:59;7.40;99.90
20891;DHT22;10605;52.968;8.844;2023-02-18T03:12:12;7.40;99.90
20891;DHT22;10605;52.968;8.844;2023-02-18T03:17:34;7.40;99.90
20891;DHT22;10605;52.968;8.844;2023-02-18T03:22:40;7.40;99.90
20891;DHT22;10605;52.968;8.844;2023-02-18T03:25:09;7.40;99.90
20891;DHT22;10605;52.968;8.844;2023-02-18T03:27:55;7.40;99.90
20891;DHT22;10605;52.968;8.844;2023-02-18T03:30:34;7.40;99.90
20891;DHT22;10605;52.968;8.844;2023-02-18T03:33:05;7.40;99.90
20891;DHT22;10605;52.968;8.844;2023-02-18T03:35:32;7.40;99.90
20891;DHT22;10605;52.968;8.844;2023-02-18T03:38:11;7.40;99.90
20891;DHT22;10605;52.968;8.844;2023-02-18T03:40:38;7.40;99.90
20891;DHT22;10605;52.968;8.844;2023-02-18T03:43:04;7.30;99.90
20891;DHT22;10605;52.968;8.844;2023-02-18T03:45:30;7.30;99.90
20891;DHT22;10605;52.968;8.844;2023-02-18T03:47:56;7.30;99.90
20891;DHT22;10605;52.968;8.844;2023-02-18T03:50:21;7.20;99.90
20891;DHT22;10605;52.968;8.844;2023-02-18T03:52:47;7.20;99.90
20891;DHT22;10605;52.968;8.844;2023-02-18T03:55:13;7.20;99.90
20891;DHT22;10605;52.968;8.844;2023-02-18T03:57:38;7.20;99.90
20891;DHT22;10605;52.968;8.844;2023-02-18T04:00:05;7.10;99.90
20891;DHT22;10605;52.968;8.844;2023-02-18T04:02:32;7.10;99.90
20891;DHT22;10605;52.968;8.844;2023-02-18T04:04:59;7.20;99.90
20891;DHT22;10605;52.968;8.844;2023-02-18T04:07:24;7.10;99.90
20891;DHT22;10605;52.968;8.844;2023-02-18T04:09:50;7.10;99.90
20891;DHT22;10605;52.968;8.844;2023-02-18T04:12:16;7.10;99.90
20891;DHT22;10605;52.968;8.844;2023-02-18T04:14:41;7.10;99.90
20891;DHT22;10605;52.968;8.844;2023-02-18T04:17:07;7.10;99.90
20891;DHT22;10605;52.968;8.844;2023-02-18T04:19:38;7.10;99.90
20891;DHT22;10605;52.968;8.844;2023-02-18T04:22:04;7.10;99.90
20891;DHT22;10605;52.968;8.844;2023-02-18T04:24:30;7.10;99.90
20891;DHT22;10605;52.968;8.844;2023-02-18T04:26:55;7.10;99.90
20891;DHT22;10605;52.968;8.844;2023-02-18T04:29:21;7.10;99.90
20891;DHT22;10605;52.968;8.844;2023-02-18T04:31:47;7.10;99.90
20891;DHT22;10605;52.968;8.844;2023-02-18T04:34:12;7.00;99.90
20891;DHT22;10605;52.968;8.844;2023-02-18T04:36:38;7.10;99.90
20891;DHT22;10605;52.968;8.844;2023-02-18T04:39:04;7.10;99.90
20891;DHT22;10605;52.968;8.844;2023-02-18T04:41:30;7.10;99.90
20891;DHT22;10605;52.968;8.844;2023-02-18T04:43:57;7.10;99.90
20891;DHT22;10605;52.968;8.844;2023-02-18T04:46:24;7.10;99.90
20891;DHT22;10605;52.968;8.844;2023-02-18T04:48:49;7.00;99.90
20891;DHT22;10605;52.968;8.844;2023-02-18T04:51:15;7.10;99.90
20891;DHT22;10605;52.968;8.844;2023-02-18T04:53:41;7.00;99.90
20891;DHT22;10605;52.968;8.844;2023-02-18T04:56:07;7.00;99.90
20891;DHT22;10605;52.968;8.844;2023-02-18T04:58:33;7.00;99.90
20891;DHT22;10605;52.968;8.844;2023-02-18T05:01:01;7.00;99.90
20891;DHT22;10605;52.968;8.844;2023-02-18T05:03:28;7.00;99.90
20891;DHT22;10605;52.968;8.844;2023-02-18T05:05:54;7.00;99.90
20891;DHT22;10605;52.968;8.844;2023-02-18T05:08:20;7.00;99.90
20891;DHT22;10605;52.968;8.844;2023-02-18T05:10:46;6.90;99.90
20891;DHT22;10605;52.968;8.844;2023-02-18T05:13:11;7.00;99.90
20891;DHT22;10605;52.968;8.844;2023-02-18T05:15:37;7.00;99.90
20891;DHT22;10605;52.968;8.844;2023-02-18T05:18:03;6.90;99.90
20891;DHT22;10605;52.968;8.844;2023-02-18T05:20:29;6.90;99.90
20891;DHT22;10605;52.968;8.844;2023-02-18T05:22:55;6.90;99.90
20891;DHT22;10605;52.968;8.844;2023-02-18T05:25:20;6.90;99.90
20891;DHT22;10605;52.968;8.844;2023-02-18T05:27:49;6.90;99.90
20891;DHT22;10605;52.968;8.844;2023-02-18T05:30:15;6.90;99.90
20891;DHT22;10605;52.968;8.844;2023-02-18T05:32:40;6.90;99.90
20891;DHT22;10605;52.968;8.844;2023-02-18T05:35:07;6.90;99.90
20891;DHT22;10605;52.968;8.844;2023-02-18T05:37:33;6.90;99.90
20891;DHT22;10605;52.968;8.844;2023-02-18T05:39:58;6.90;99.90
20891;DHT22;10605;52.968;8.844;2023-02-18T05:42:24;6.90;99.90
20891;DHT22;10605;52.968;8.844;2023-02-18T05:44:50;6.90;99.90
20891;DHT22;10605;52.968;8.844;2023-02-18T05:47:15;7.00;99.90
20891;DHT22;10605;52.968;8.844;2023-02-18T05:49:43;7.00;99.90
20891;DHT22;10605;52.968;8.844;2023-02-18T05:52:09;7.00;99.90
20891;DHT22;10605;52.968;8.844;2023-02-18T05:54:36;7.00;99.90
20891;DHT22;10605;52.968;8.844;2023-02-18T05:57:05;6.90;99.90
20891;DHT22;10605;52.968;8.844;2023-02-18T05:59:30;7.00;99.90
20891;DHT22;10605;52.968;8.844;2023-02-18T06:01:56;7.00;99.90
20891;DHT22;10605;52.968;8.844;2023-02-18T06:04:22;6.90;99.90
20891;DHT22;10605;52.968;8.844;2023-02-18T06:06:51;6.90;99.90
20891;DHT22;10605;52.968;8.844;2023-02-18T06:09:16;6.90;99.90
20891;DHT22;10605;52.968;8.844;2023-02-18T06:11:42;6.90;99.90
20891;DHT22;10605;52.968;8.844;2023-02-18T06:14:08;6.90;99.90
20891;DHT22;10605;52.968;8.844;2023-02-18T06:16:34;6.90;99.90
20891;DHT22;10605;52.968;8.844;2023-02-18T06:18:59;6.90;99.90
20891;DHT22;10605;52.968;8.844;2023-02-18T06:21:25;6.90;99.90
20891;DHT22;10605;52.968;8.844;2023-02-18T06:23:51;6.90;99.90
20891;DHT22;10605;52.968;8.844;2023-02-18T06:26:17;7.00;99.90
20891;DHT22;10605;52.968;8.844;2023-02-18T06:28:42;6.90;99.90
20891;DHT22;10605;52.968;8.844;2023-02-18T06:31:08;7.00;99.90
20891;DHT22;10605;52.968;8.844;2023-02-18T06:33:34;7.00;99.90
20891;DHT22;10605;52.968;8.844;2023-02-18T06:36:03;7.00;99.90
20891;DHT22;10605;52.968;8.844;2023-02-18T06:38:32;7.10;99.90
20891;DHT22;10605;52.968;8.844;2023-02-18T06:40:58;7.10;99.90
20891;DHT22;10605;52.968;8.844;2023-02-18T06:43:24;7.00;99.90
20891;DHT22;10605;52.968;8.844;2023-02-18T06:45:53;7.00;99.90
20891;DHT22;10605;52.968;8.844;2023-02-18T06:48:18;7.00;99.90
20891;DHT22;10605;52.968;8.844;2023-02-18T06:50:44;7.00;99.90
20891;DHT22;10605;52.968;8.844;2023-02-18T06:53:11;7.00;99.90
20891;DHT22;10605;52.968;8.844;2023-02-18T06:55:37;7.00;99.90
20891;DHT22;10605;52.968;8.844;2023-02-18T06:58:03;7.00;99.90
20891;DHT22;10605;52.968;8.844;2023-02-18T07:00:29;7.00;99.90
20891;DHT22;10605;52.968;8.844;2023-02-18T07:02:57;7.00;99.90
20891;DHT22;10605;52.968;8.844;2023-02-18T07:05:23;7.00;99.90
20891;DHT22;10605;52.968;8.844;2023-02-18T07:07:49;7.10;99.90
20891;DHT22;10605;52.968;8.844;2023-02-18T07:10:14;7.10;99.90
20891;DHT22;10605;52.968;8.844;2023-02-18T07:12:40;7.10;99.90
20891;DHT22;10605;52.968;8.844;2023-02-18T07:15:06;7.10;99.90
20891;DHT22;10605;52.968;8.844;2023-02-18T07:17:32;7.10;99.90
20891;DHT22;10605;52.968;8.844;2023-02-18T07:19:58;7.00;99.90
20891;DHT22;10605;52.968;8.844;2023-02-18T07:22:25;7.10;99.90
20891;DHT22;10605;52.968;8.844;2023-02-18T07:24:52;7.10;99.90
20891;DHT22;10605;52.968;8.844;2023-02-18T07:27:19;7.10;99.90
20891;DHT22;10605;52.968;8.844;2023-02-18T07:29:45;7.10;99.90
20891;DHT22;10605;52.968;8.844;2023-02-18T07:32:12;7.10;99.90
20891;DHT22;10605;52.968;8.844;2023-02-18T07:34:38;7.10;99.90
20891;DHT22;10605;52.968;8.844;2023-02-18T07:37:03;7.20;99.90
20891;DHT22;10605;52.968;8.844;2023-02-18T07:39:34;7.20;99.90
20891;DHT22;10605;52.968;8.844;2023-02-18T07:42:01;7.30;99.90
20891;DHT22;10605;52.968;8.844;2023-02-18T07:44:27;7.40;99.90
20891;DHT22;10605;52.968;8.844;2023-02-18T07:46:53;7.50;99.90
20891;DHT22;10605;52.968;8.844;2023-02-18T07:49:18;7.60;99.90
20891;DHT22;10605;52.968;8.844;2023-02-18T07:51:47;7.70;99.90
20891;DHT22;10605;52.968;8.844;2023-02-18T07:54:13;7.80;99.90
20891;DHT22;10605;52.968;8.844;2023-02-18T07:56:39;8.00;99.90
20891;DHT22;10605;52.968;8.844;2023-02-18T07:59:05;8.10;99.90
20891;DHT22;10605;52.968;8.844;2023-02-18T08:01:30;8.20;99.90
20891;DHT22;10605;52.968;8.844;2023-02-18T08:03:56;8.30;99.90
20891;DHT22;10605;52.968;8.844;2023-02-18T08:06:31;8.40;99.90
20891;DHT22;10605;52.968;8.844;2023-02-18T08:08:57;8.50;99.90
20891;DHT22;10605;52.968;8.844;2023-02-18T08:11:23;8.70;99.90
20891;DHT22;10605;52.968;8.844;2023-02-18T08:13:49;8.80;99.90
20891;DHT22;10605;52.968;8.844;2023-02-18T08:16:17;8.90;99.90
20891;DHT22;10605;52.968;8.844;2023-02-18T08:18:43;9.00;99.90
20891;DHT22;10605;52.968;8.844;2023-02-18T08:21:09;9.00;99.90
20891;DHT22;10605;52.968;8.844;2023-02-18T08:23:35;9.10;99.90
20891;DHT22;10605;52.968;8.844;2023-02-18T08:26:00;9.20;99.90
20891;DHT22;10605;52.968;8.844;2023-02-18T08:28:26;9.30;99.90
20891;DHT22;10605;52.968;8.844;2023-02-18T08:30:53;9.50;99.90
20891;DHT22;10605;52.968;8.844;2023-02-18T08:33:20;9.60;99.90
20891;DHT22;10605;52.968;8.844;2023-02-18T08:35:48;9.70;99.90
20891;DHT22;10605;52.968;8.844;2023-02-18T08:38:14;9.80;99.90
20891;DHT22;10605;52.968;8.844;2023-02-18T08:40:40;9.80;99.90
20891;DHT22;10605;52.968;8.844;2023-02-18T08:43:07;9.90;99.90
20891;DHT22;10605;52.968;8.844;2023-02-18T08:45:32;9.90;99.90
20891;DHT22;10605;52.968;8.844;2023-02-18T08:47:58;10.10;99.90
20891;DHT22;10605;52.968;8.844;2023-02-18T08:50:24;10.20;99.90
20891;DHT22;10605;52.968;8.844;2023-02-18T08:52:54;10.20;99.90
20891;DHT22;10605;52.968;8.844;2023-02-18T08:55:20;10.30;99.90
20891;DHT22;10605;52.968;8.844;2023-02-18T08:57:49;10.30;99.90
20891;DHT22;10605;52.968;8.844;2023-02-18T09:00:16;10.40;99.90
20891;DHT22;10605;52.968;8.844;2023-02-18T09:02:42;10.50;99.90
20891;DHT22;10605;52.968;8.844;2023-02-18T09:05:08;10.60;99.90
20891;DHT22;10605;52.968;8.844;2023-02-18T09:07:35;10.60;99.90
20891;DHT22;10605;52.968;8.844;2023-02-18T09:10:01;10.50;99.90
20891;DHT22;10605;52.968;8.844;2023-02-18T09:12:27;10.40;99.90
20891;DHT22;10605;52.968;8.844;2023-02-18T09:14:53;10.40;99.90
20891;DHT22;10605;52.968;8.844;2023-02-18T09:17:19;10.60;99.90
20891;DHT22;10605;52.968;8.844;2023-02-18T09:19:47;10.80;99.90
20891;DHT22;10605;52.968;8.844;2023-02-18T09:22:15;10.80;99.90
20891;DHT22;10605;52.968;8.844;2023-02-18T09:24:54;10.70;99.90
20891;DHT22;10605;52.968;8.844;2023-02-18T09:27:20;10.80;99.90
20891;DHT22;10605;52.968;8.844;2023-02-18T09:29:52;10.90;99.90
20891;DHT22;10605;52.968;8.844;2023-02-18T09:32:18;10.90;99.90
20891;DHT22;10605;52.968;8.844;2023-02-18T09:34:44;11.00;99.90
20891;DHT22;10605;52.968;8.844;2023-02-18T09:37:10;11.00;99.90
20891;DHT22;10605;52.968;8.844;2023-02-18T09:39:36;11.10;99.90
20891;DHT22;10605;52.968;8.844;2023-02-18T09:42:07;11.20;99.90
20891;DHT22;10605;52.968;8.844;2023-02-18T09:44:41;11.30;99.90
20891;DHT22;10605;52.968;8.844;2023-02-18T09:47:14;11.20;99.90
20891;DHT22;10605;52.968;8.844;2023-02-18T09:49:51;11.20;99.90
20891;DHT22;10605;52.968;8.844;2023-02-18T09:52:21;11.10;99.90
20891;DHT22;10605;52.968;8.844;2023-02-18T09:54:49;11.00;99.90
20891;DHT22;10605;52.968;8.844;2023-02-18T10:00:14;11.30;99.90
20891;DHT22;10605;52.968;8.844;2023-02-18T10:02:50;11.20;99.90
20891;DHT22;10605;52.968;8.844;2023-02-18T10:05:17;11.10;99.90
20891;DHT22;10605;52.968;8.844;2023-02-18T10:07:43;11.00;99.90
20891;DHT22;10605;52.968;8.844;2023-02-18T10:10:30;11.00;99.90
20891;DHT22;10605;52.968;8.844;2023-02-18T10:12:57;11.00;99.90
20891;DHT22;10605;52.968;8.844;2023-02-18T10:15:27;10.90;99.90
20891;DHT22;10605;52.968;8.844;2023-02-18T10:17:55;10.90;99.90
20891;DHT22;10605;52.968;8.844;2023-02-18T10:20:25;11.00;99.90
20891;DHT22;10605;52.968;8.844;2023-02-18T10:22:53;10.90;99.90
20891;DHT22;10605;52.968;8.844;2023-02-18T10:25:22;10.90;99.90
20891;DHT22;10605;52.968;8.844;2023-02-18T10:27:50;11.00;99.90
20891;DHT22;10605;52.968;8.844;2023-02-18T10:30:29;11.00;99.90
20891;DHT22;10605;52.968;8.844;2023-02-18T10:35:56;11.10;99.90
20891;DHT22;10605;52.968;8.844;2023-02-18T10:41:15;11.10;99.90
20891;DHT22;10605;52.968;8.844;2023-02-18T10:47:04;11.40;99.90
20891;DHT22;10605;52.968;8.844;2023-02-18T10:52:08;11.20;99.90
20891;DHT22;10605;52.968;8.844;2023-02-18T10:55:09;11.20;99.90
20891;DHT22;10605;52.968;8.844;2023-02-18T10:58:05;11.20;99.90
20891;DHT22;10605;52.968;8.844;2023-02-18T11:00:35;11.10;99.90
20891;DHT22;10605;52.968;8.844;2023-02-18T11:05:40;11.00;99.90
20891;DHT22;10605;52.968;8.844;2023-02-18T11:08:28;11.10;99.90
20891;DHT22;10605;52.968;8.844;2023-02-18T11:10:57;11.30;99.90
20891;DHT22;10605;52.968;8.844;2023-02-18T11:13:28;11.40;99.90
20891;DHT22;10605;52.968;8.844;2023-02-18T11:16:01;11.40;99.90
20891;DHT22;10605;52.968;8.844;2023-02-18T11:18:31;11.40;99.90
20891;DHT22;10605;52.968;8.844;2023-02-18T11:21:03;11.30;99.90
20891;DHT22;10605;52.968;8.844;2023-02-18T11:23:45;11.30;99.90
20891;DHT22;10605;52.968;8.844;2023-02-18T11:26:16;11.20;99.90
20891;DHT22;10605;52.968;8.844;2023-02-18T11:29:18;11.20;99.90
20891;DHT22;10605;52.968;8.844;2023-02-18T11:32:04;11.20;99.90
20891;DHT22;10605;52.968;8.844;2023-02-18T11:34:50;11.00;99.90
20891;DHT22;10605;52.968;8.844;2023-02-18T11:37:30;11.00;99.90
20891;DHT22;10605;52.968;8.844;2023-02-18T11:40:40;10.90;99.90
20891;DHT22;10605;52.968;8.844;2023-02-18T11:43:38;10.90;99.90
20891;DHT22;10605;52.968;8.844;2023-02-18T11:46:43;11.10;99.90
20891;DHT22;10605;52.968;8.844;2023-02-18T11:50:02;11.10;99.90
20891;DHT22;10605;52.968;8.844;2023-02-18T11:55:20;10.80;99.90
20891;DHT22;10605;52.968;8.844;2023-02-18T11:58:04;11.00;99.90
20891;DHT22;10605;52.968;8.844;2023-02-18T12:10:01;10.80;99.90
20891;DHT22;10605;52.968;8.844;2023-02-18T12:12:38;10.60;99.90
20891;DHT22;10605;52.968;8.844;2023-02-18T12:15:08;10.60;99.90
20891;DHT22;10605;52.968;8.844;2023-02-18T12:17:47;10.70;99.90
20891;DHT22;10605;52.968;8.844;2023-02-18T12:34:52;10.90;99.90
20891;DHT22;10605;52.968;8.844;2023-02-18T12:50:24;11.00;99.90
20891;DHT22;10605;52.968;8.844;2023-02-18T12:59:19;10.90;99.90
20891;DHT22;10605;52.968;8.844;2023-02-18T13:11:15;10.90;99.90
20891;DHT22;10605;52.968;8.844;2023-02-18T13:13:57;10.80;99.90
20891;DHT22;10605;52.968;8.844;2023-02-18T13:19:56;10.70;99.90
20891;DHT22;10605;52.968;8.844;2023-02-18T13:22:30;10.80;99.90
20891;DHT22;10605;52.968;8.844;2023-02-18T13:25:03;10.80;99.90
20891;DHT22;10605;52.968;8.844;2023-02-18T13:37:34;10.90;99.90
20891;DHT22;10605;52.968;8.844;2023-02-18T13:40:31;10.80;99.90
20891;DHT22;10605;52.968;8.844;2023-02-18T13:49:42;10.70;99.90
20891;DHT22;10605;52.968;8.844;2023-02-18T13:52:38;10.70;99.90
20891;DHT22;10605;52.968;8.844;2023-02-18T13:58:59;10.80;99.90
20891;DHT22;10605;52.968;8.844;2023-02-18T14:08:04;10.60;99.90
20891;DHT22;10605;52.968;8.844;2023-02-18T14:20:28;10.60;99.90
20891;DHT22;10605;52.968;8.844;2023-02-18T14:29:34;10.70;99.90
20891;DHT22;10605;52.968;8.844;2023-02-18T14:32:29;10.70;99.90
20891;DHT22;10605;52.968;8.844;2023-02-18T14:42:07;10.50;99.90
20891;DHT22;10605;52.968;8.844;2023-02-18T14:50:53;10.50;99.90
20891;DHT22;10605;52.968;8.844;2023-02-18T14:53:57;10.50;99.90
20891;DHT22;10605;52.968;8.844;2023-02-18T15:00:05;10.60;99.90
20891;DHT22;10605;52.968;8.844;2023-02-18T15:03:17;10.50;99.90
20891;DHT22;10605;52.968;8.844;2023-02-18T15:06:30;10.50;99.90
20891;DHT22;10605;52.968;8.844;2023-02-18T15:09:00;10.50;99.90
20891;DHT22;10605;52.968;8.844;2023-02-18T15:14:33;10.50;99.90
20891;DHT22;10605;52.968;8.844;2023-02-18T15:17:01;10.50;99.90
20891;DHT22;10605;52.968;8.844;2023-02-18T15:19:39;10.50;99.90
20891;DHT22;10605;52.968;8.844;2023-02-18T15:22:05;10.50;99.90
20891;DHT22;10605;52.968;8.844;2023-02-18T15:24:39;10.50;99.90
20891;DHT22;10605;52.968;8.844;2023-02-18T15:29:36;10.40;99.90
20891;DHT22;10605;52.968;8.844;2023-02-18T15:32:20;10.40;99.90
20891;DHT22;10605;52.968;8.844;2023-02-18T15:34:52;10.30;99.90
20891;DHT22;10605;52.968;8.844;2023-02-18T15:37:23;10.30;99.90
20891;DHT22;10605;52.968;8.844;2023-02-18T15:39:49;10.20;99.90
20891;DHT22;10605;52.968;8.844;2023-02-18T15:42:24;10.20;99.90
20891;DHT22;10605;52.968;8.844;2023-02-18T15:45:08;10.10;99.90
20891;DHT22;10605;52.968;8.844;2023-02-18T15:47:47;10.10;99.90
20891;DHT22;10605;52.968;8.844;2023-02-18T15:50:29;10.10;99.90
20891;DHT22;10605;52.968;8.844;2023-02-18T15:52:58;10.10;99.90
20891;DHT22;10605;52.968;8.844;2023-02-18T15:57:59;10.00;99.90
20891;DHT22;10605;52.968;8.844;2023-02-18T16:00:31;10.00;99.90
20891;DHT22;10605;52.968;8.844;2023-02-18T16:03:11;10.00;99.90
20891;DHT22;10605;52.968;8.844;2023-02-18T16:05:38;9.90;99.90
20891;DHT22;10605;52.968;8.844;2023-02-18T16:08:16;9.90;99.90
20891;DHT22;10605;52.968;8.844;2023-02-18T16:10:53;9.80;99.90
20891;DHT22;10605;52.968;8.844;2023-02-18T16:13:20;9.70;99.90
20891;DHT22;10605;52.968;8.844;2023-02-18T16:15:49;9.70;99.90
20891;DHT22;10605;52.968;8.844;2023-02-18T16:18:24;9.70;99.90
20891;DHT22;10605;52.968;8.844;2023-02-18T16:21:03;9.70;99.90
20891;DHT22;10605;52.968;8.844;2023-02-18T16:23:50;9.70;99.90
20891;DHT22;10605;52.968;8.844;2023-02-18T16:28:52;9.60;99.90
20891;DHT22;10605;52.968;8.844;2023-02-18T16:31:18;9.60;99.90
20891;DHT22;10605;52.968;8.844;2023-02-18T16:33:46;9.60;99.90
20891;DHT22;10605;52.968;8.844;2023-02-18T16:36:13;9.50;99.90
20891;DHT22;10605;52.968;8.844;2023-02-18T16:38:41;9.60;99.90
20891;DHT22;10605;52.968;8.844;2023-02-18T16:41:10;9.50;99.90
20891;DHT22;10605;52.968;8.844;2023-02-18T16:43:36;9.50;99.90
20891;DHT22;10605;52.968;8.844;2023-02-18T16:46:08;9.40;99.90
20891;DHT22;10605;52.968;8.844;2023-02-18T16:48:44;9.50;99.90
20891;DHT22;10605;52.968;8.844;2023-02-18T16:51:15;9.50;99.90
20891;DHT22;10605;52.968;8.844;2023-02-18T16:53:41;9.40;99.90
20891;DHT22;10605;52.968;8.844;2023-02-18T16:56:17;9.40;99.90
20891;DHT22;10605;52.968;8.844;2023-02-18T16:58:43;9.40;99.90
20891;DHT22;10605;52.968;8.844;2023-02-18T17:03:53;9.30;99.90
20891;DHT22;10605;52.968;8.844;2023-02-18T17:06:20;9.40;99.90
20891;DHT22;10605;52.968;8.844;2023-02-18T17:08:46;9.30;99.90
20891;DHT22;10605;52.968;8.844;2023-02-18T17:11:21;9.40;99.90
20891;DHT22;10605;52.968;8.844;2023-02-18T17:13:49;9.30;99.90
20891;DHT22;10605;52.968;8.844;2023-02-18T17:16:15;9.30;99.90
20891;DHT22;10605;52.968;8.844;2023-02-18T17:18:41;9.30;99.90
20891;DHT22;10605;52.968;8.844;2023-02-18T17:21:16;9.40;99.90
20891;DHT22;10605;52.968;8.844;2023-02-18T17:23:42;9.30;99.90
20891;DHT22;10605;52.968;8.844;2023-02-18T17:28:44;9.30;99.90
20891;DHT22;10605;52.968;8.844;2023-02-18T17:33:54;9.30;99.90
20891;DHT22;10605;52.968;8.844;2023-02-18T17:36:21;9.30;99.90
20891;DHT22;10605;52.968;8.844;2023-02-18T17:38:47;9.20;99.90
20891;DHT22;10605;52.968;8.844;2023-02-18T17:41:14;9.30;99.90
20891;DHT22;10605;52.968;8.844;2023-02-18T17:43:40;9.20;99.90
20891;DHT22;10605;52.968;8.844;2023-02-18T17:46:10;9.20;99.90
20891;DHT22;10605;52.968;8.844;2023-02-18T17:48:37;9.20;99.90
20891;DHT22;10605;52.968;8.844;2023-02-18T17:51:03;9.10;99.90
20891;DHT22;10605;52.968;8.844;2023-02-18T17:53:32;9.10;99.90
20891;DHT22;10605;52.968;8.844;2023-02-18T17:55:58;9.10;99.90
20891;DHT22;10605;52.968;8.844;2023-02-18T17:58:24;9.10;99.90
20891;DHT22;10605;52.968;8.844;2023-02-18T18:00:55;9.00;99.90
20891;DHT22;10605;52.968;8.844;2023-02-18T18:03:22;9.00;99.90
20891;DHT22;10605;52.968;8.844;2023-02-18T18:05:49;9.00;99.90
20891;DHT22;10605;52.968;8.844;2023-02-18T18:08:17;9.00;99.90
20891;DHT22;10605;52.968;8.844;2023-02-18T18:10:48;8.90;99.90
20891;DHT22;10605;52.968;8.844;2023-02-18T18:13:24;8.90;99.90
20891;DHT22;10605;52.968;8.844;2023-02-18T18:15:51;8.90;99.90
20891;DHT22;10605;52.968;8.844;2023-02-18T18:18:17;8.90;99.90
20891;DHT22;10605;52.968;8.844;2023-02-18T18:20:47;8.90;99.90
20891;DHT22;10605;52.968;8.844;2023-02-18T18:23:15;8.90;99.90
20891;DHT22;10605;52.968;8.844;2023-02-18T18:25:46;8.80;99.90
20891;DHT22;10605;52.968;8.844;2023-02-18T18:28:12;8.80;99.90
20891;DHT22;10605;52.968;8.844;2023-02-18T18:30:44;8.70;99.90
20891;DHT22;10605;52.968;8.844;2023-02-18T18:35:49;8.70;99.90
20891;DHT22;10605;52.968;8.844;2023-02-18T18:38:19;8.60;99.90
20891;DHT22;10605;52.968;8.844;2023-02-18T18:40:47;8.60;99.90
20891;DHT22;10605;52.968;8.844;2023-02-18T18:43:21;8.60;99.90
20891;DHT22;10605;52.968;8.844;2023-02-18T18:45:47;8.60;99.90
20891;DHT22;10605;52.968;8.844;2023-02-18T18:48:17;8.60;99.90
20891;DHT22;10605;52.968;8.844;2023-02-18T18:50:44;8.60;99.90
20891;DHT22;10605;52.968;8.844;2023-02-18T18:53:17;8.60;99.90
20891;DHT22;10605;52.968;8.844;2023-02-18T18:55:43;8.50;99.90
20891;DHT22;10605;52.968;8.844;2023-02-18T18:58:09;8.50;99.90
20891;DHT22;10605;52.968;8.844;2023-02-18T19:00:38;8.60;99.90
20891;DHT22;10605;52.968;8.844;2023-02-18T19:03:04;8.60;99.90
20891;DHT22;10605;52.968;8.844;2023-02-18T19:05:33;8.60;99.90
20891;DHT22;10605;52.968;8.844;2023-02-18T19:08:00;8.50;99.90
20891;DHT22;10605;52.968;8.844;2023-02-18T19:10:32;8.60;99.90
20891;DHT22;10605;52.968;8.844;2023-02-18T19:13:07;8.50;99.90
20891;DHT22;10605;52.968;8.844;2023-02-18T19:15:35;8.50;99.90
20891;DHT22;10605;52.968;8.844;2023-02-18T19:18:01;8.60;99.90
20891;DHT22;10605;52.968;8.844;2023-02-18T19:20:33;8.50;99.90
20891;DHT22;10605;52.968;8.844;2023-02-18T19:23:01;8.50;99.90